createdAt,value
2022-08-09T00:05:03.191Z,74710.41
2022-08-09T00:15:26.770Z,74712.44
2022-08-09T00:25:51.824Z,74716.47
2022-08-09T00:35:59.675Z,74728.63
2022-08-09T00:46:08.593Z,74740.75
2022-08-09T00:56:14.041Z,74752.91
2022-08-09T01:06:53.308Z,74765.03
2022-08-09T01:16:57.044Z,74795.38
2022-08-09T01:27:13.265Z,74811.56
2022-08-09T01:37:17.409Z,74817.66
2022-08-09T01:47:44.920Z,74813.59
2022-08-09T01:57:58.815Z,74833.84
2022-08-09T02:08:39.897Z,74848.00
2022-08-09T02:18:42.845Z,74854.06
2022-08-09T02:28:54.081Z,74852.03
2022-08-09T02:39:19.775Z,74845.97
2022-08-09T02:49:27.235Z,74852.03
2022-08-09T03:00:20.484Z,74858.13
2022-08-09T03:10:16.407Z,74860.13
2022-08-09T03:20:21.179Z,74862.16
2022-08-09T03:30:33.856Z,74856.09
2022-08-09T03:40:41.227Z,74864.19
2022-08-09T03:50:46.028Z,74856.09
2022-08-09T04:01:01.163Z,74872.28
2022-08-09T04:11:06.033Z,74872.28
2022-08-09T04:21:15.477Z,74876.31
2022-08-09T04:31:17.659Z,74872.28
2022-08-09T04:41:33.769Z,74888.47
2022-08-09T04:51:54.785Z,74900.59
2022-08-09T05:02:03.484Z,74920.84
2022-08-09T05:12:14.665Z,74924.88
2022-08-09T05:22:33.408Z,74908.69
2022-08-09T05:32:44.122Z,74892.50
2022-08-09T05:42:46.273Z,74874.31
2022-08-09T05:52:54.821Z,74872.28
2022-08-09T06:03:10.784Z,74856.09
2022-08-09T06:13:20.293Z,74856.09
2022-08-09T06:23:24.339Z,74833.84
2022-08-09T06:33:54.825Z,74821.69
2022-08-09T06:44:01.673Z,74789.31
2022-08-09T06:54:14.743Z,74767.06
2022-08-09T07:04:21.763Z,74718.50
2022-08-09T07:14:33.160Z,74653.75
2022-08-09T07:24:44.515Z,74589.00
2022-08-09T07:34:53.070Z,74568.78
2022-08-09T07:44:59.672Z,74562.72
2022-08-09T07:55:09.644Z,74508.09
2022-08-09T08:05:17.984Z,74368.50
2022-08-09T08:15:24.275Z,74352.31
2022-08-09T08:25:40.154Z,74301.72
2022-08-09T08:35:59.053Z,74245.09
2022-08-09T08:46:33.494Z,74307.78
2022-08-09T08:56:46.636Z,74305.78
2022-08-09T09:06:52.071Z,74281.50
2022-08-09T09:16:55.446Z,74234.97
2022-08-09T09:27:01.684Z,74277.44
2022-08-09T09:37:05.192Z,74269.34
2022-08-09T09:47:21.348Z,74232.94
2022-08-09T09:58:02.226Z,74180.34
2022-08-09T10:08:10.776Z,74218.78
2022-08-09T10:18:12.648Z,74156.06
2022-08-09T10:28:15.692Z,74147.97
2022-08-09T10:38:34.647Z,74119.66
2022-08-09T10:49:02.218Z,74141.91
2022-08-09T10:59:31.005Z,74196.53
2022-08-09T11:09:41.339Z,74200.56
2022-08-09T11:20:07.950Z,74196.53
2022-08-09T11:30:48.004Z,74206.66
2022-08-09T11:40:54.969Z,74188.44
2022-08-09T11:52:48.465Z,74192.47
2022-08-09T12:02:16.341Z,74152.03
2022-08-09T12:12:20.094Z,74176.31
2022-08-09T12:22:23.627Z,74115.59
2022-08-09T12:32:31.993Z,74123.69
2022-08-09T12:42:45.211Z,74139.88
2022-08-09T12:53:08.024Z,74077.16
2022-08-09T13:03:20.690Z,74058.97
2022-08-09T13:14:11.938Z,74056.94
2022-08-09T13:24:52.671Z,74083.25
2022-08-09T13:34:41.153Z,74156.06
2022-08-09T13:44:48.631Z,74210.69
2022-08-09T13:55:00.745Z,74261.25
2022-08-09T14:05:13.498Z,74257.22
2022-08-09T14:16:07.039Z,74200.56
2022-08-09T14:26:10.062Z,74212.72
2022-08-09T14:36:20.456Z,74212.72
2022-08-09T14:46:56.603Z,74192.47
2022-08-09T14:56:57.287Z,74218.78
2022-08-09T15:07:10.311Z,74200.56
2022-08-09T15:17:15.952Z,74188.44
2022-08-09T15:27:20.028Z,74184.38
2022-08-09T15:37:37.983Z,74170.22
2022-08-09T15:48:05.340Z,74176.31
2022-08-09T15:58:26.750Z,74200.56
2022-08-09T16:08:32.118Z,74224.84
2022-08-09T16:18:44.890Z,74253.19
2022-08-09T16:28:49.145Z,74265.31
2022-08-09T16:38:58.243Z,74273.41
2022-08-09T16:49:16.814Z,74293.63
2022-08-09T16:59:28.217Z,74305.78
2022-08-09T17:09:44.931Z,74334.09
2022-08-09T17:20:29.826Z,74348.25
2022-08-09T17:30:14.429Z,74358.38
2022-08-09T17:40:22.156Z,74368.50
2022-08-09T17:50:36.661Z,74394.78
2022-08-09T18:00:46.567Z,74402.88
2022-08-09T18:11:02.211Z,74429.19
2022-08-09T18:21:23.810Z,74455.47
2022-08-09T18:31:55.165Z,74471.66
2022-08-09T18:42:08.760Z,74489.88
2022-08-09T18:52:18.745Z,74508.09
2022-08-09T19:02:32.049Z,74516.19
2022-08-09T19:12:38.375Z,74536.41
2022-08-09T19:22:40.653Z,74536.41
2022-08-09T19:32:59.907Z,74528.31
2022-08-09T19:43:05.403Z,74520.22
2022-08-09T19:53:13.037Z,74540.47
2022-08-09T20:04:25.078Z,74560.69
2022-08-09T20:13:38.271Z,74556.66
2022-08-09T20:23:43.310Z,74564.75
2022-08-09T20:33:58.234Z,74589.00
2022-08-09T20:44:00.670Z,74593.06
2022-08-09T20:54:03.592Z,74599.13
2022-08-09T21:05:51.340Z,74633.53
2022-08-09T21:14:40.367Z,74665.91
2022-08-09T21:25:05.026Z,74682.09
2022-08-09T21:35:07.348Z,74686.13
2022-08-09T21:45:17.326Z,74710.41
2022-08-09T21:55:24.639Z,74690.19
2022-08-09T22:05:36.074Z,74732.66
2022-08-09T22:15:40.032Z,74758.97
2022-08-09T22:26:06.754Z,74777.19
2022-08-09T22:36:10.158Z,74795.38
2022-08-09T22:48:16.185Z,74799.44
2022-08-09T22:56:35.454Z,74801.47
2022-08-09T23:06:59.491Z,74807.53
2022-08-09T23:17:03.864Z,74803.47
2022-08-09T23:27:06.248Z,74815.63
2022-08-09T23:37:08.718Z,74827.75
2022-08-09T23:47:20.630Z,74845.97
2022-08-09T23:57:22.705Z,74868.22
